Callao, Peru
Current Conditions -  °F | °C
As of 6:00 PM on Saturday 20 Dec 2014 (Local Time) from SPIM Reporting Station
Scattered Clouds Scattered Clouds  
Wind Chill: 70°   Ceiling: Unl
Heat Index: 70°   Visibility: 6mi
Dew Point: 63°   Wind: 15mph
Humidity: 78%   Direction: 160°SSE
Pressure: 29.88"   Gusts: NA
Location:  12.07°S, 77.15°W
Report Text: SPIM 202300Z 16013KT 9999 FEW010 SCT230 21/17 Q1012 NOSIG RMK PP000
Loading
Personal Weather Stations






























Interactive Weather Map New forecast layout! Learn more

10-Day Weather Forecast

Advertisements
Track Severe Weather on mobile